sensor_id;sensor_type;location;lat;lon;timestamp;temperature;humidity
42617;DHT22;28250;52.320;0.360;2022-10-16T00:01:32;11.10;99.90
42617;DHT22;28250;52.320;0.360;2022-10-16T00:03:59;11.20;99.90
42617;DHT22;28250;52.320;0.360;2022-10-16T00:06:27;11.10;99.90
42617;DHT22;28250;52.320;0.360;2022-10-16T00:08:54;11.10;99.90
42617;DHT22;28250;52.320;0.360;2022-10-16T00:11:22;11.10;99.90
42617;DHT22;28250;52.320;0.360;2022-10-16T00:13:51;11.10;99.90
42617;DHT22;28250;52.320;0.360;2022-10-16T00:16:20;11.10;99.90
42617;DHT22;28250;52.320;0.360;2022-10-16T00:18:47;11.10;99.90
42617;DHT22;28250;52.320;0.360;2022-10-16T00:21:16;11.20;99.90
42617;DHT22;28250;52.320;0.360;2022-10-16T00:24:05;11.30;99.90
42617;DHT22;28250;52.320;0.360;2022-10-16T00:26:33;11.30;99.90
42617;DHT22;28250;52.320;0.360;2022-10-16T00:29:00;11.30;99.90
42617;DHT22;28250;52.320;0.360;2022-10-16T00:31:27;11.30;99.90
42617;DHT22;28250;52.320;0.360;2022-10-16T00:33:54;11.30;99.90
42617;DHT22;28250;52.320;0.360;2022-10-16T00:36:21;11.30;99.90
42617;DHT22;28250;52.320;0.360;2022-10-16T00:38:51;11.30;99.90
42617;DHT22;28250;52.320;0.360;2022-10-16T00:41:20;11.40;99.90
42617;DHT22;28250;52.320;0.360;2022-10-16T00:43:49;11.30;99.90
42617;DHT22;28250;52.320;0.360;2022-10-16T00:48:59;11.30;99.90
42617;DHT22;28250;52.320;0.360;2022-10-16T00:51:32;11.30;99.90
42617;DHT22;28250;52.320;0.360;2022-10-16T00:54:02;11.20;99.90
42617;DHT22;28250;52.320;0.360;2022-10-16T00:56:31;11.10;99.90
42617;DHT22;28250;52.320;0.360;2022-10-16T00:58:58;11.10;99.90
42617;DHT22;28250;52.320;0.360;2022-10-16T01:01:25;11.20;99.90
42617;DHT22;28250;52.320;0.360;2022-10-16T01:03:51;11.10;99.90
42617;DHT22;28250;52.320;0.360;2022-10-16T01:06:21;11.10;99.90
42617;DHT22;28250;52.320;0.360;2022-10-16T01:08:53;11.00;99.90
42617;DHT22;28250;52.320;0.360;2022-10-16T01:13:53;10.90;99.90
42617;DHT22;28250;52.320;0.360;2022-10-16T01:18:57;10.90;99.90
42617;DHT22;28250;52.320;0.360;2022-10-16T01:21:28;10.90;99.90
42617;DHT22;28250;52.320;0.360;2022-10-16T01:24:06;10.90;99.90
42617;DHT22;28250;52.320;0.360;2022-10-16T01:29:23;10.80;99.90
42617;DHT22;28250;52.320;0.360;2022-10-16T01:31:55;10.80;99.90
42617;DHT22;28250;52.320;0.360;2022-10-16T01:34:25;10.80;99.90
42617;DHT22;28250;52.320;0.360;2022-10-16T01:37:00;10.80;99.90
42617;DHT22;28250;52.320;0.360;2022-10-16T01:39:31;10.80;99.90
42617;DHT22;28250;52.320;0.360;2022-10-16T01:42:01;10.80;99.90
42617;DHT22;28250;52.320;0.360;2022-10-16T01:44:33;10.70;99.90
42617;DHT22;28250;52.320;0.360;2022-10-16T01:47:00;10.60;99.90
42617;DHT22;28250;52.320;0.360;2022-10-16T01:49:27;10.60;99.90
42617;DHT22;28250;52.320;0.360;2022-10-16T01:51:57;10.60;99.90
42617;DHT22;28250;52.320;0.360;2022-10-16T01:54:26;10.60;99.90
42617;DHT22;28250;52.320;0.360;2022-10-16T01:56:54;10.60;99.90
42617;DHT22;28250;52.320;0.360;2022-10-16T01:59:21;10.60;99.90
42617;DHT22;28250;52.320;0.360;2022-10-16T02:01:52;10.50;99.90
42617;DHT22;28250;52.320;0.360;2022-10-16T02:04:23;10.50;99.90
42617;DHT22;28250;52.320;0.360;2022-10-16T02:06:52;10.40;99.90
42617;DHT22;28250;52.320;0.360;2022-10-16T02:09:19;10.30;99.90
42617;DHT22;28250;52.320;0.360;2022-10-16T02:11:45;10.30;99.90
42617;DHT22;28250;52.320;0.360;2022-10-16T02:14:11;10.40;99.90
42617;DHT22;28250;52.320;0.360;2022-10-16T02:16:39;10.50;99.90
42617;DHT22;28250;52.320;0.360;2022-10-16T02:19:12;10.50;99.90
42617;DHT22;28250;52.320;0.360;2022-10-16T02:24:32;10.50;99.90
42617;DHT22;28250;52.320;0.360;2022-10-16T02:27:02;10.50;99.90
42617;DHT22;28250;52.320;0.360;2022-10-16T02:29:32;10.50;99.90
42617;DHT22;28250;52.320;0.360;2022-10-16T02:32:00;10.50;99.90
42617;DHT22;28250;52.320;0.360;2022-10-16T02:34:28;10.60;99.90
42617;DHT22;28250;52.320;0.360;2022-10-16T02:36:56;10.50;99.90
42617;DHT22;28250;52.320;0.360;2022-10-16T02:39:23;10.60;99.90
42617;DHT22;28250;52.320;0.360;2022-10-16T02:41:49;10.60;99.90
42617;DHT22;28250;52.320;0.360;2022-10-16T02:44:16;10.60;99.90
42617;DHT22;28250;52.320;0.360;2022-10-16T02:46:42;10.50;99.90
42617;DHT22;28250;52.320;0.360;2022-10-16T02:49:08;10.50;99.90
42617;DHT22;28250;52.320;0.360;2022-10-16T02:51:35;10.50;99.90
42617;DHT22;28250;52.320;0.360;2022-10-16T02:54:01;10.60;99.90
42617;DHT22;28250;52.320;0.360;2022-10-16T02:56:28;10.60;99.90
42617;DHT22;28250;52.320;0.360;2022-10-16T02:58:55;10.60;99.90
42617;DHT22;28250;52.320;0.360;2022-10-16T03:01:22;10.60;99.90
42617;DHT22;28250;52.320;0.360;2022-10-16T03:03:48;10.60;99.90
42617;DHT22;28250;52.320;0.360;2022-10-16T03:06:15;10.60;99.90
42617;DHT22;28250;52.320;0.360;2022-10-16T03:08:41;10.50;99.90
42617;DHT22;28250;52.320;0.360;2022-10-16T03:11:07;10.50;99.90
42617;DHT22;28250;52.320;0.360;2022-10-16T03:13:34;10.50;99.90
42617;DHT22;28250;52.320;0.360;2022-10-16T03:16:00;10.50;99.90
42617;DHT22;28250;52.320;0.360;2022-10-16T03:18:26;10.60;99.90
42617;DHT22;28250;52.320;0.360;2022-10-16T03:20:52;10.60;99.90
42617;DHT22;28250;52.320;0.360;2022-10-16T03:23:19;10.60;99.90
42617;DHT22;28250;52.320;0.360;2022-10-16T03:25:45;10.50;99.90
42617;DHT22;28250;52.320;0.360;2022-10-16T03:28:11;10.50;99.90
42617;DHT22;28250;52.320;0.360;2022-10-16T03:30:37;10.40;99.90
42617;DHT22;28250;52.320;0.360;2022-10-16T03:33:05;10.40;99.90
42617;DHT22;28250;52.320;0.360;2022-10-16T03:35:31;10.40;99.90
42617;DHT22;28250;52.320;0.360;2022-10-16T03:37:58;10.40;99.90
42617;DHT22;28250;52.320;0.360;2022-10-16T03:40:24;10.40;99.90
42617;DHT22;28250;52.320;0.360;2022-10-16T03:42:51;10.30;99.90
42617;DHT22;28250;52.320;0.360;2022-10-16T03:45:17;10.30;99.90
42617;DHT22;28250;52.320;0.360;2022-10-16T03:47:43;10.30;99.90
42617;DHT22;28250;52.320;0.360;2022-10-16T03:50:10;10.20;99.90
42617;DHT22;28250;52.320;0.360;2022-10-16T03:52:36;10.20;99.90
42617;DHT22;28250;52.320;0.360;2022-10-16T03:55:02;10.30;99.90
42617;DHT22;28250;52.320;0.360;2022-10-16T03:57:29;10.30;99.90
42617;DHT22;28250;52.320;0.360;2022-10-16T03:59:55;10.40;99.90
42617;DHT22;28250;52.320;0.360;2022-10-16T04:02:21;10.40;99.90
42617;DHT22;28250;52.320;0.360;2022-10-16T04:04:48;10.50;99.90
42617;DHT22;28250;52.320;0.360;2022-10-16T04:07:14;10.50;99.90
42617;DHT22;28250;52.320;0.360;2022-10-16T04:09:40;10.50;99.90
42617;DHT22;28250;52.320;0.360;2022-10-16T04:12:07;10.50;99.90
42617;DHT22;28250;52.320;0.360;2022-10-16T04:14:33;10.50;99.90
42617;DHT22;28250;52.320;0.360;2022-10-16T04:17:00;10.50;99.90
42617;DHT22;28250;52.320;0.360;2022-10-16T04:19:26;10.40;99.90
42617;DHT22;28250;52.320;0.360;2022-10-16T04:21:52;10.40;99.90
42617;DHT22;28250;52.320;0.360;2022-10-16T04:24:19;10.30;99.90
42617;DHT22;28250;52.320;0.360;2022-10-16T04:26:45;10.20;99.90
42617;DHT22;28250;52.320;0.360;2022-10-16T04:29:11;10.20;99.90
42617;DHT22;28250;52.320;0.360;2022-10-16T04:31:37;10.10;99.90
42617;DHT22;28250;52.320;0.360;2022-10-16T04:34:04;10.10;99.90
42617;DHT22;28250;52.320;0.360;2022-10-16T04:36:30;10.10;99.90
42617;DHT22;28250;52.320;0.360;2022-10-16T04:38:56;10.10;99.90
42617;DHT22;28250;52.320;0.360;2022-10-16T04:41:22;10.10;99.90
42617;DHT22;28250;52.320;0.360;2022-10-16T04:43:49;10.00;99.90
42617;DHT22;28250;52.320;0.360;2022-10-16T04:46:15;10.00;99.90
42617;DHT22;28250;52.320;0.360;2022-10-16T04:48:41;10.00;99.90
42617;DHT22;28250;52.320;0.360;2022-10-16T04:51:07;10.00;99.90
42617;DHT22;28250;52.320;0.360;2022-10-16T04:53:33;10.00;99.90
42617;DHT22;28250;52.320;0.360;2022-10-16T04:56:00;9.90;99.90
42617;DHT22;28250;52.320;0.360;2022-10-16T04:58:26;10.00;99.90
42617;DHT22;28250;52.320;0.360;2022-10-16T05:00:52;9.90;99.90
42617;DHT22;28250;52.320;0.360;2022-10-16T05:03:19;10.00;99.90
42617;DHT22;28250;52.320;0.360;2022-10-16T05:05:45;10.00;99.90
42617;DHT22;28250;52.320;0.360;2022-10-16T05:08:13;10.00;99.90
42617;DHT22;28250;52.320;0.360;2022-10-16T05:10:40;9.90;99.90
42617;DHT22;28250;52.320;0.360;2022-10-16T05:13:07;9.90;99.90
42617;DHT22;28250;52.320;0.360;2022-10-16T05:15:34;9.90;99.90
42617;DHT22;28250;52.320;0.360;2022-10-16T05:18:00;9.80;99.90
42617;DHT22;28250;52.320;0.360;2022-10-16T05:20:26;9.80;99.90
42617;DHT22;28250;52.320;0.360;2022-10-16T05:22:53;9.80;99.90
42617;DHT22;28250;52.320;0.360;2022-10-16T05:25:19;9.80;99.90
42617;DHT22;28250;52.320;0.360;2022-10-16T05:27:47;9.80;99.90
42617;DHT22;28250;52.320;0.360;2022-10-16T05:30:14;9.80;99.90
42617;DHT22;28250;52.320;0.360;2022-10-16T05:32:45;9.80;99.90
42617;DHT22;28250;52.320;0.360;2022-10-16T05:35:13;9.70;99.90
42617;DHT22;28250;52.320;0.360;2022-10-16T05:37:39;9.70;99.90
42617;DHT22;28250;52.320;0.360;2022-10-16T05:40:06;9.70;99.90
42617;DHT22;28250;52.320;0.360;2022-10-16T05:42:32;9.70;99.90
42617;DHT22;28250;52.320;0.360;2022-10-16T05:44:59;9.70;99.90
42617;DHT22;28250;52.320;0.360;2022-10-16T05:47:25;9.70;99.90
42617;DHT22;28250;52.320;0.360;2022-10-16T05:49:51;9.70;99.90
42617;DHT22;28250;52.320;0.360;2022-10-16T05:52:18;9.70;99.90
42617;DHT22;28250;52.320;0.360;2022-10-16T05:54:44;9.70;99.90
42617;DHT22;28250;52.320;0.360;2022-10-16T05:57:10;9.70;99.90
42617;DHT22;28250;52.320;0.360;2022-10-16T05:59:36;9.70;99.90
42617;DHT22;28250;52.320;0.360;2022-10-16T06:02:03;9.60;99.90
42617;DHT22;28250;52.320;0.360;2022-10-16T06:04:29;9.60;99.90
42617;DHT22;28250;52.320;0.360;2022-10-16T06:06:58;9.60;99.90
42617;DHT22;28250;52.320;0.360;2022-10-16T06:09:26;9.50;99.90
42617;DHT22;28250;52.320;0.360;2022-10-16T06:11:52;9.50;99.90
42617;DHT22;28250;52.320;0.360;2022-10-16T06:14:19;9.40;99.90
42617;DHT22;28250;52.320;0.360;2022-10-16T06:16:45;9.40;99.90
42617;DHT22;28250;52.320;0.360;2022-10-16T06:19:11;9.40;99.90
42617;DHT22;28250;52.320;0.360;2022-10-16T06:21:37;9.30;99.90
42617;DHT22;28250;52.320;0.360;2022-10-16T06:24:04;9.30;99.90
42617;DHT22;28250;52.320;0.360;2022-10-16T06:26:30;9.20;99.90
42617;DHT22;28250;52.320;0.360;2022-10-16T06:28:57;9.20;99.90
42617;DHT22;28250;52.320;0.360;2022-10-16T06:31:25;9.20;99.90
42617;DHT22;28250;52.320;0.360;2022-10-16T06:33:53;9.20;99.90
42617;DHT22;28250;52.320;0.360;2022-10-16T06:36:20;9.20;99.90
42617;DHT22;28250;52.320;0.360;2022-10-16T06:38:47;9.20;99.90
42617;DHT22;28250;52.320;0.360;2022-10-16T06:41:14;9.10;99.90
42617;DHT22;28250;52.320;0.360;2022-10-16T06:43:42;9.10;99.90
42617;DHT22;28250;52.320;0.360;2022-10-16T06:46:10;9.10;99.90
42617;DHT22;28250;52.320;0.360;2022-10-16T06:48:37;9.00;99.90
42617;DHT22;28250;52.320;0.360;2022-10-16T06:53:33;9.00;99.90
42617;DHT22;28250;52.320;0.360;2022-10-16T06:58:45;9.00;99.90
42617;DHT22;28250;52.320;0.360;2022-10-16T07:01:12;9.00;99.90
42617;DHT22;28250;52.320;0.360;2022-10-16T07:03:40;9.00;99.90
42617;DHT22;28250;52.320;0.360;2022-10-16T07:06:08;9.10;99.90
42617;DHT22;28250;52.320;0.360;2022-10-16T07:08:36;9.10;99.90
42617;DHT22;28250;52.320;0.360;2022-10-16T07:11:05;9.20;99.90
42617;DHT22;28250;52.320;0.360;2022-10-16T07:13:32;9.30;99.90
42617;DHT22;28250;52.320;0.360;2022-10-16T07:16:07;9.30;99.90
42617;DHT22;28250;52.320;0.360;2022-10-16T07:18:34;9.30;99.90
42617;DHT22;28250;52.320;0.360;2022-10-16T07:21:03;9.40;99.90
42617;DHT22;28250;52.320;0.360;2022-10-16T07:23:33;9.40;99.90
42617;DHT22;28250;52.320;0.360;2022-10-16T07:26:00;9.50;99.90
42617;DHT22;28250;52.320;0.360;2022-10-16T07:28:27;9.50;99.90
42617;DHT22;28250;52.320;0.360;2022-10-16T07:30:53;9.60;99.90
42617;DHT22;28250;52.320;0.360;2022-10-16T07:33:20;9.60;99.90
42617;DHT22;28250;52.320;0.360;2022-10-16T07:35:49;9.70;99.90
42617;DHT22;28250;52.320;0.360;2022-10-16T07:38:16;9.80;99.90
42617;DHT22;28250;52.320;0.360;2022-10-16T07:40:43;9.80;99.90
42617;DHT22;28250;52.320;0.360;2022-10-16T07:43:09;9.90;99.90
42617;DHT22;28250;52.320;0.360;2022-10-16T07:45:36;10.00;99.90
42617;DHT22;28250;52.320;0.360;2022-10-16T07:48:03;10.00;99.90
42617;DHT22;28250;52.320;0.360;2022-10-16T07:50:29;10.10;99.90
42617;DHT22;28250;52.320;0.360;2022-10-16T07:52:56;10.10;99.90
42617;DHT22;28250;52.320;0.360;2022-10-16T07:55:22;10.10;99.90
42617;DHT22;28250;52.320;0.360;2022-10-16T07:57:48;10.20;99.90
42617;DHT22;28250;52.320;0.360;2022-10-16T08:00:14;10.40;99.90
42617;DHT22;28250;52.320;0.360;2022-10-16T08:02:41;10.40;99.90
42617;DHT22;28250;52.320;0.360;2022-10-16T08:05:07;10.50;99.90
42617;DHT22;28250;52.320;0.360;2022-10-16T08:07:34;10.60;99.90
42617;DHT22;28250;52.320;0.360;2022-10-16T08:10:00;10.60;99.90
42617;DHT22;28250;52.320;0.360;2022-10-16T08:12:26;10.60;99.90
42617;DHT22;28250;52.320;0.360;2022-10-16T08:14:52;10.60;99.90
42617;DHT22;28250;52.320;0.360;2022-10-16T08:17:19;10.60;99.90
42617;DHT22;28250;52.320;0.360;2022-10-16T08:19:45;10.60;99.90
42617;DHT22;28250;52.320;0.360;2022-10-16T08:22:13;10.70;99.90
42617;DHT22;28250;52.320;0.360;2022-10-16T08:24:40;10.80;99.90
42617;DHT22;28250;52.320;0.360;2022-10-16T08:27:07;10.80;99.90
42617;DHT22;28250;52.320;0.360;2022-10-16T08:29:34;10.90;99.90
42617;DHT22;28250;52.320;0.360;2022-10-16T08:32:00;11.10;99.90
42617;DHT22;28250;52.320;0.360;2022-10-16T08:34:27;11.10;99.90
42617;DHT22;28250;52.320;0.360;2022-10-16T08:36:53;11.20;99.90
42617;DHT22;28250;52.320;0.360;2022-10-16T08:39:20;11.30;99.90
42617;DHT22;28250;52.320;0.360;2022-10-16T08:41:55;11.40;99.90
42617;DHT22;28250;52.320;0.360;2022-10-16T08:47:22;11.50;99.90
42617;DHT22;28250;52.320;0.360;2022-10-16T08:49:58;11.50;99.90
42617;DHT22;28250;52.320;0.360;2022-10-16T08:52:29;11.60;99.90
42617;DHT22;28250;52.320;0.360;2022-10-16T08:54:59;11.60;99.90
42617;DHT22;28250;52.320;0.360;2022-10-16T08:57:26;11.60;99.90
42617;DHT22;28250;52.320;0.360;2022-10-16T08:59:53;11.60;99.90
42617;DHT22;28250;52.320;0.360;2022-10-16T09:02:23;11.70;99.90
42617;DHT22;28250;52.320;0.360;2022-10-16T09:07:24;11.90;99.90
42617;DHT22;28250;52.320;0.360;2022-10-16T09:18:01;12.20;99.90
42617;DHT22;28250;52.320;0.360;2022-10-16T09:23:18;12.50;99.90
42617;DHT22;28250;52.320;0.360;2022-10-16T09:25:48;12.50;99.90
42617;DHT22;28250;52.320;0.360;2022-10-16T09:28:16;12.60;99.90
42617;DHT22;28250;52.320;0.360;2022-10-16T09:30:43;12.70;99.90
42617;DHT22;28250;52.320;0.360;2022-10-16T09:33:11;12.70;99.90
42617;DHT22;28250;52.320;0.360;2022-10-16T09:38:06;12.90;99.90
42617;DHT22;28250;52.320;0.360;2022-10-16T09:43:02;13.00;99.90
42617;DHT22;28250;52.320;0.360;2022-10-16T09:45:32;13.00;99.90
42617;DHT22;28250;52.320;0.360;2022-10-16T09:48:00;13.10;99.90
42617;DHT22;28250;52.320;0.360;2022-10-16T09:50:34;13.10;99.90
42617;DHT22;28250;52.320;0.360;2022-10-16T09:53:03;13.30;99.90
42617;DHT22;28250;52.320;0.360;2022-10-16T09:55:31;13.30;99.90
42617;DHT22;28250;52.320;0.360;2022-10-16T09:57:57;13.40;99.90
42617;DHT22;28250;52.320;0.360;2022-10-16T10:00:24;13.50;99.90
42617;DHT22;28250;52.320;0.360;2022-10-16T10:02:50;13.50;99.90
42617;DHT22;28250;52.320;0.360;2022-10-16T10:05:20;13.60;99.90
42617;DHT22;28250;52.320;0.360;2022-10-16T10:07:53;13.80;99.90
42617;DHT22;28250;52.320;0.360;2022-10-16T10:10:24;13.90;99.90
42617;DHT22;28250;52.320;0.360;2022-10-16T10:12:52;13.80;99.90
42617;DHT22;28250;52.320;0.360;2022-10-16T10:15:19;14.00;99.90
42617;DHT22;28250;52.320;0.360;2022-10-16T10:17:49;14.00;99.90
42617;DHT22;28250;52.320;0.360;2022-10-16T10:22:49;14.10;99.90
42617;DHT22;28250;52.320;0.360;2022-10-16T10:30:54;14.50;99.90
42617;DHT22;28250;52.320;0.360;2022-10-16T10:43:48;15.10;99.90
42617;DHT22;28250;52.320;0.360;2022-10-16T10:46:31;15.20;99.90
42617;DHT22;28250;52.320;0.360;2022-10-16T11:07:32;16.40;99.90
42617;DHT22;28250;52.320;0.360;2022-10-16T11:13:03;16.70;99.90
42617;DHT22;28250;52.320;0.360;2022-10-16T11:15:37;16.80;99.90
42617;DHT22;28250;52.320;0.360;2022-10-16T11:18:07;17.00;99.90
42617;DHT22;28250;52.320;0.360;2022-10-16T11:20:34;17.00;99.90
42617;DHT22;28250;52.320;0.360;2022-10-16T11:23:22;17.10;99.90
42617;DHT22;28250;52.320;0.360;2022-10-16T11:25:51;17.30;99.90
42617;DHT22;28250;52.320;0.360;2022-10-16T11:28:24;17.40;99.90
42617;DHT22;28250;52.320;0.360;2022-10-16T11:36:51;17.80;99.90
42617;DHT22;28250;52.320;0.360;2022-10-16T11:39:38;17.90;99.90
42617;DHT22;28250;52.320;0.360;2022-10-16T11:47:13;18.10;99.90
42617;DHT22;28250;52.320;0.360;2022-10-16T11:50:04;18.20;99.90
42617;DHT22;28250;52.320;0.360;2022-10-16T11:52:40;18.20;99.90
42617;DHT22;28250;52.320;0.360;2022-10-16T11:55:14;17.90;99.90
42617;DHT22;28250;52.320;0.360;2022-10-16T11:57:47;17.70;99.90
42617;DHT22;28250;52.320;0.360;2022-10-16T12:07:50;18.60;99.90
42617;DHT22;28250;52.320;0.360;2022-10-16T12:10:37;18.80;99.90
42617;DHT22;28250;52.320;0.360;2022-10-16T12:13:05;18.90;99.90
42617;DHT22;28250;52.320;0.360;2022-10-16T12:18:43;18.90;99.90
42617;DHT22;28250;52.320;0.360;2022-10-16T12:21:11;18.90;99.90
42617;DHT22;28250;52.320;0.360;2022-10-16T12:26:27;19.10;99.90
42617;DHT22;28250;52.320;0.360;2022-10-16T12:28:55;19.40;99.90
42617;DHT22;28250;52.320;0.360;2022-10-16T12:31:23;19.40;99.90
42617;DHT22;28250;52.320;0.360;2022-10-16T12:34:03;19.40;99.90
42617;DHT22;28250;52.320;0.360;2022-10-16T12:36:32;19.20;99.90
42617;DHT22;28250;52.320;0.360;2022-10-16T12:38:59;19.00;99.90
42617;DHT22;28250;52.320;0.360;2022-10-16T12:43:54;19.30;99.90
42617;DHT22;28250;52.320;0.360;2022-10-16T12:46:23;19.50;99.90
42617;DHT22;28250;52.320;0.360;2022-10-16T12:51:39;19.30;99.90
42617;DHT22;28250;52.320;0.360;2022-10-16T12:56:36;19.50;99.90
42617;DHT22;28250;52.320;0.360;2022-10-16T13:02:39;19.30;99.90
42617;DHT22;28250;52.320;0.360;2022-10-16T13:07:52;19.40;99.90
42617;DHT22;28250;52.320;0.360;2022-10-16T13:13:25;18.80;99.90
42617;DHT22;28250;52.320;0.360;2022-10-16T13:21:54;18.70;99.90
42617;DHT22;28250;52.320;0.360;2022-10-16T13:30:20;18.30;99.90
42617;DHT22;28250;52.320;0.360;2022-10-16T13:32:50;17.90;99.90
42617;DHT22;28250;52.320;0.360;2022-10-16T13:35:24;17.70;99.90
42617;DHT22;28250;52.320;0.360;2022-10-16T13:38:02;18.00;99.90
42617;DHT22;28250;52.320;0.360;2022-10-16T13:40:31;18.20;99.90
42617;DHT22;28250;52.320;0.360;2022-10-16T13:42:59;18.20;99.90
42617;DHT22;28250;52.320;0.360;2022-10-16T13:45:25;18.60;99.90
42617;DHT22;28250;52.320;0.360;2022-10-16T13:50:38;18.80;99.90
42617;DHT22;28250;52.320;0.360;2022-10-16T13:53:06;19.00;99.90
42617;DHT22;28250;52.320;0.360;2022-10-16T13:55:35;18.70;99.90
42617;DHT22;28250;52.320;0.360;2022-10-16T13:58:08;18.70;99.90
42617;DHT22;28250;52.320;0.360;2022-10-16T14:00:38;18.40;99.90
42617;DHT22;28250;52.320;0.360;2022-10-16T14:03:06;18.10;99.90
42617;DHT22;28250;52.320;0.360;2022-10-16T14:08:26;18.30;99.90
42617;DHT22;28250;52.320;0.360;2022-10-16T14:10:54;17.90;99.90
42617;DHT22;28250;52.320;0.360;2022-10-16T14:13:27;18.10;99.90
42617;DHT22;28250;52.320;0.360;2022-10-16T14:15:58;18.30;99.90
42617;DHT22;28250;52.320;0.360;2022-10-16T14:18:27;18.20;99.90
42617;DHT22;28250;52.320;0.360;2022-10-16T14:20:54;17.80;99.90
42617;DHT22;28250;52.320;0.360;2022-10-16T14:28:34;17.70;99.90
42617;DHT22;28250;52.320;0.360;2022-10-16T14:31:02;17.50;99.90
42617;DHT22;28250;52.320;0.360;2022-10-16T14:33:39;17.30;99.90
42617;DHT22;28250;52.320;0.360;2022-10-16T14:36:09;17.30;99.90
42617;DHT22;28250;52.320;0.360;2022-10-16T14:38:40;17.10;99.90
42617;DHT22;28250;52.320;0.360;2022-10-16T14:41:07;16.90;99.90
42617;DHT22;28250;52.320;0.360;2022-10-16T14:43:35;16.90;99.90
42617;DHT22;28250;52.320;0.360;2022-10-16T14:46:03;16.90;99.90
42617;DHT22;28250;52.320;0.360;2022-10-16T14:48:32;16.90;99.90
42617;DHT22;28250;52.320;0.360;2022-10-16T14:50:59;16.80;99.90
42617;DHT22;28250;52.320;0.360;2022-10-16T14:53:25;16.80;99.90
42617;DHT22;28250;52.320;0.360;2022-10-16T14:55:52;16.80;99.90
42617;DHT22;28250;52.320;0.360;2022-10-16T14:58:19;16.70;99.90
42617;DHT22;28250;52.320;0.360;2022-10-16T15:00:47;16.70;99.90
42617;DHT22;28250;52.320;0.360;2022-10-16T15:03:14;16.70;99.90
42617;DHT22;28250;52.320;0.360;2022-10-16T15:05:40;16.60;99.90
42617;DHT22;28250;52.320;0.360;2022-10-16T15:08:06;16.70;99.90
42617;DHT22;28250;52.320;0.360;2022-10-16T15:10:35;16.70;99.90
42617;DHT22;28250;52.320;0.360;2022-10-16T15:13:06;16.70;99.90
42617;DHT22;28250;52.320;0.360;2022-10-16T15:15:33;16.70;99.90
42617;DHT22;28250;52.320;0.360;2022-10-16T15:18:01;16.60;99.90
42617;DHT22;28250;52.320;0.360;2022-10-16T15:20:29;16.60;99.90
42617;DHT22;28250;52.320;0.360;2022-10-16T15:23:02;16.60;99.90
42617;DHT22;28250;52.320;0.360;2022-10-16T15:25:32;16.60;99.90
42617;DHT22;28250;52.320;0.360;2022-10-16T15:27:59;16.60;99.90
42617;DHT22;28250;52.320;0.360;2022-10-16T15:30:26;16.60;99.90
42617;DHT22;28250;52.320;0.360;2022-10-16T15:32:53;16.50;99.90
42617;DHT22;28250;52.320;0.360;2022-10-16T15:35:20;16.40;99.90
42617;DHT22;28250;52.320;0.360;2022-10-16T15:37:46;16.30;99.90
42617;DHT22;28250;52.320;0.360;2022-10-16T15:40:14;16.20;99.90
42617;DHT22;28250;52.320;0.360;2022-10-16T15:42:42;16.20;99.90
42617;DHT22;28250;52.320;0.360;2022-10-16T15:45:08;16.10;99.90
42617;DHT22;28250;52.320;0.360;2022-10-16T15:47:35;16.00;99.90
42617;DHT22;28250;52.320;0.360;2022-10-16T15:50:02;15.90;99.90
42617;DHT22;28250;52.320;0.360;2022-10-16T15:52:29;15.80;99.90
42617;DHT22;28250;52.320;0.360;2022-10-16T15:54:57;15.80;99.90
42617;DHT22;28250;52.320;0.360;2022-10-16T15:57:24;15.70;99.90
42617;DHT22;28250;52.320;0.360;2022-10-16T15:59:51;15.70;99.90
42617;DHT22;28250;52.320;0.360;2022-10-16T16:02:17;15.60;99.90
42617;DHT22;28250;52.320;0.360;2022-10-16T16:04:43;15.50;99.90
42617;DHT22;28250;52.320;0.360;2022-10-16T16:07:10;15.40;99.90
42617;DHT22;28250;52.320;0.360;2022-10-16T16:09:36;15.40;99.90
42617;DHT22;28250;52.320;0.360;2022-10-16T16:12:03;15.30;99.90
42617;DHT22;28250;52.320;0.360;2022-10-16T16:14:30;15.20;99.90
42617;DHT22;28250;52.320;0.360;2022-10-16T16:16:57;15.20;99.90
42617;DHT22;28250;52.320;0.360;2022-10-16T16:19:23;15.10;99.90
42617;DHT22;28250;52.320;0.360;2022-10-16T16:21:50;15.00;99.90
42617;DHT22;28250;52.320;0.360;2022-10-16T16:24:16;14.90;99.90
42617;DHT22;28250;52.320;0.360;2022-10-16T16:26:43;14.80;99.90
42617;DHT22;28250;52.320;0.360;2022-10-16T16:29:12;14.80;99.90
42617;DHT22;28250;52.320;0.360;2022-10-16T16:31:40;14.80;99.90
42617;DHT22;28250;52.320;0.360;2022-10-16T16:34:08;14.80;99.90
42617;DHT22;28250;52.320;0.360;2022-10-16T16:36:34;14.60;99.90
42617;DHT22;28250;52.320;0.360;2022-10-16T16:39:02;14.60;99.90
42617;DHT22;28250;52.320;0.360;2022-10-16T16:41:28;14.60;99.90
42617;DHT22;28250;52.320;0.360;2022-10-16T16:44:00;14.50;99.90
42617;DHT22;28250;52.320;0.360;2022-10-16T16:46:28;14.50;99.90
42617;DHT22;28250;52.320;0.360;2022-10-16T16:48:57;14.40;99.90
42617;DHT22;28250;52.320;0.360;2022-10-16T16:51:23;14.30;99.90
42617;DHT22;28250;52.320;0.360;2022-10-16T16:53:51;14.30;99.90
42617;DHT22;28250;52.320;0.360;2022-10-16T16:56:19;14.40;99.90
42617;DHT22;28250;52.320;0.360;2022-10-16T16:58:49;14.30;99.90
42617;DHT22;28250;52.320;0.360;2022-10-16T17:01:17;14.40;99.90
42617;DHT22;28250;52.320;0.360;2022-10-16T17:03:43;14.30;99.90
42617;DHT22;28250;52.320;0.360;2022-10-16T17:06:11;14.20;99.90
42617;DHT22;28250;52.320;0.360;2022-10-16T17:08:40;14.20;99.90
42617;DHT22;28250;52.320;0.360;2022-10-16T17:11:11;14.20;99.90
42617;DHT22;28250;52.320;0.360;2022-10-16T17:13:39;14.20;99.90
42617;DHT22;28250;52.320;0.360;2022-10-16T17:16:07;14.20;99.90
42617;DHT22;28250;52.320;0.360;2022-10-16T17:18:33;14.20;99.90
42617;DHT22;28250;52.320;0.360;2022-10-16T17:21:01;14.20;99.90
42617;DHT22;28250;52.320;0.360;2022-10-16T17:23:29;14.30;99.90
42617;DHT22;28250;52.320;0.360;2022-10-16T17:28:31;14.30;99.90
42617;DHT22;28250;52.320;0.360;2022-10-16T17:31:08;14.20;99.90
42617;DHT22;28250;52.320;0.360;2022-10-16T17:33:34;14.20;99.90
42617;DHT22;28250;52.320;0.360;2022-10-16T17:36:00;14.30;99.90
42617;DHT22;28250;52.320;0.360;2022-10-16T17:38:27;14.40;99.90
42617;DHT22;28250;52.320;0.360;2022-10-16T17:40:53;14.40;99.90
42617;DHT22;28250;52.320;0.360;2022-10-16T17:43:20;14.40;99.90
42617;DHT22;28250;52.320;0.360;2022-10-16T17:45:46;14.40;99.90
42617;DHT22;28250;52.320;0.360;2022-10-16T17:48:12;14.30;99.90
42617;DHT22;28250;52.320;0.360;2022-10-16T17:50:40;14.30;99.90
42617;DHT22;28250;52.320;0.360;2022-10-16T17:53:06;14.40;99.90
42617;DHT22;28250;52.320;0.360;2022-10-16T17:55:39;14.40;99.90
42617;DHT22;28250;52.320;0.360;2022-10-16T17:58:06;14.50;99.90
42617;DHT22;28250;52.320;0.360;2022-10-16T18:00:32;14.50;99.90
42617;DHT22;28250;52.320;0.360;2022-10-16T18:02:59;14.40;99.90
42617;DHT22;28250;52.320;0.360;2022-10-16T18:05:25;14.40;99.90